Time;durP1;ratioP1;P1;durP2;ratioP2;P2;SDS_P1;SDS_P2;PMS_P1;PMS_P2;Temp;Humidity;BMP_temperature;BMP_pressure;BME280_temperature;BME280_humidity;BME280_pressure;Samples;Min_cycle;Max_cycle;Signal;HPM_P1;HPM_P2
2023/11/22 00:00:31;;;;;;;5.43;2.78;;;2.60;99.90;;;;;;4964564;28;20047;-66
2023/11/22 00:02:57;;;;;;;5.50;2.78;;;2.60;99.90;;;;;;4958086;28;20049;-66
2023/11/22 00:05:23;;;;;;;4.80;2.95;;;2.60;99.90;;;;;;4963384;28;20098;-66
2023/11/22 00:07:49;;;;;;;5.43;2.92;;;2.60;99.90;;;;;;4945598;28;20035;-66
2023/11/22 00:10:15;;;;;;;5.05;2.80;;;2.70;99.90;;;;;;4960654;28;20563;-66
2023/11/22 00:12:41;;;;;;;7.25;3.22;;;2.70;99.90;;;;;;4959621;28;20109;-66
2023/11/22 00:15:07;;;;;;;6.50;3.10;;;2.70;99.90;;;;;;4962232;28;20026;-66
2023/11/22 00:17:34;;;;;;;4.82;2.58;;;2.70;99.90;;;;;;4960864;28;20090;-66
2023/11/22 00:20:05;;;;;;;6.25;2.72;;;2.70;99.90;;;;;;4943554;28;20030;-66
2023/11/22 00:22:34;;;;;;;5.18;2.63;;;2.70;99.90;;;;;;4963249;28;20039;-67
2023/11/22 00:25:01;;;;;;;7.93;3.00;;;2.70;99.90;;;;;;4959446;28;20647;-66
2023/11/22 00:27:29;;;;;;;5.65;3.08;;;2.60;99.90;;;;;;4960700;28;20058;-66
2023/11/22 00:29:56;;;;;;;4.22;2.63;;;2.60;99.90;;;;;;4959333;28;20027;-66
2023/11/22 00:32:22;;;;;;;5.82;3.15;;;2.60;99.90;;;;;;4946979;28;20034;-66
2023/11/22 00:34:48;;;;;;;4.03;2.50;;;2.40;99.90;;;;;;4942215;28;20031;-66
2023/11/22 00:37:14;;;;;;;6.95;3.20;;;2.40;99.90;;;;;;4961173;28;20403;-66
2023/11/22 00:39:40;;;;;;;4.05;2.42;;;2.40;99.90;;;;;;4958785;28;20113;-66
2023/11/22 00:42:06;;;;;;;10.38;3.03;;;2.40;99.90;;;;;;4961016;28;20516;-67
2023/11/22 00:44:32;;;;;;;4.97;2.72;;;2.40;99.90;;;;;;4949478;28;20085;-66
2023/11/22 00:46:58;;;;;;;6.43;2.83;;;2.40;99.90;;;;;;4958706;28;20126;-66
2023/11/22 00:49:24;;;;;;;4.53;2.92;;;2.40;99.90;;;;;;4960637;28;20030;-66
2023/11/22 00:51:52;;;;;;;4.35;2.30;;;2.40;99.90;;;;;;4938847;28;20082;-66
2023/11/22 00:54:19;;;;;;;6.10;3.00;;;2.40;99.90;;;;;;4962392;28;20102;-66
2023/11/22 00:56:46;;;;;;;5.20;2.83;;;2.40;99.90;;;;;;4941174;28;20774;-66
2023/11/22 00:59:12;;;;;;;5.30;2.50;;;2.40;99.90;;;;;;4950014;28;20049;-66
2023/11/22 01:01:38;;;;;;;4.82;2.70;;;2.40;99.90;;;;;;4940548;28;20499;-66
2023/11/22 01:04:07;;;;;;;8.63;2.88;;;2.40;99.90;;;;;;4941535;28;20069;-66
2023/11/22 01:06:34;;;;;;;4.97;2.80;;;2.40;99.90;;;;;;4963302;28;20522;-66
2023/11/22 01:09:00;;;;;;;4.40;2.53;;;2.40;99.90;;;;;;4963134;28;20072;-66
2023/11/22 01:11:26;;;;;;;5.18;3.00;;;2.30;99.90;;;;;;4946882;28;20062;-66
2023/11/22 01:13:52;;;;;;;5.57;3.05;;;2.30;99.90;;;;;;4960161;28;20031;-66
2023/11/22 01:16:19;;;;;;;4.47;2.72;;;2.30;99.90;;;;;;4959583;28;20118;-66
2023/11/22 01:18:46;;;;;;;3.80;2.72;;;2.20;99.90;;;;;;4958644;28;20818;-66
2023/11/22 01:21:12;;;;;;;5.32;2.63;;;2.20;99.90;;;;;;4960741;28;20039;-66
2023/11/22 01:23:38;;;;;;;5.35;2.85;;;2.10;99.90;;;;;;4958347;28;20046;-66
2023/11/22 01:26:05;;;;;;;4.28;2.08;;;2.10;99.90;;;;;;4947069;28;20061;-66
2023/11/22 01:28:34;;;;;;;6.55;2.83;;;2.10;99.90;;;;;;4947634;28;20049;-66
2023/11/22 01:31:03;;;;;;;6.60;3.03;;;2.00;99.90;;;;;;4958952;28;20574;-66
2023/11/22 01:33:32;;;;;;;5.50;2.80;;;2.00;99.90;;;;;;4962371;28;20257;-66
2023/11/22 01:35:58;;;;;;;5.00;2.50;;;2.00;99.90;;;;;;4945722;28;20035;-66
2023/11/22 01:38:24;;;;;;;5.63;2.80;;;2.00;99.90;;;;;;4942989;28;20514;-66
2023/11/22 01:40:51;;;;;;;5.38;2.80;;;2.00;99.90;;;;;;4960571;28;20090;-66
2023/11/22 01:43:18;;;;;;;5.65;2.83;;;1.90;99.90;;;;;;4946132;28;20041;-66
2023/11/22 01:45:45;;;;;;;7.35;3.28;;;1.90;99.90;;;;;;4954899;28;20666;-66
2023/11/22 01:48:11;;;;;;;7.40;3.40;;;1.90;99.90;;;;;;4943421;28;20031;-66
2023/11/22 01:50:40;;;;;;;5.30;2.97;;;1.90;99.90;;;;;;4958170;28;20029;-67
2023/11/22 01:53:12;;;;;;;4.95;2.97;;;1.90;99.90;;;;;;4960940;28;20143;-66
2023/11/22 01:55:39;;;;;;;5.50;3.10;;;1.80;99.90;;;;;;4939922;28;20059;-66
2023/11/22 01:58:06;;;;;;;8.77;3.72;;;1.80;99.90;;;;;;4947974;28;20113;-66
2023/11/22 02:00:43;;;;;;;5.78;3.00;;;1.80;99.90;;;;;;4938512;28;20038;-66
2023/11/22 02:03:10;;;;;;;7.30;3.13;;;1.80;99.90;;;;;;4948339;28;20123;-66
2023/11/22 02:05:42;;;;;;;9.93;3.42;;;1.80;99.90;;;;;;4947782;28;20382;-66
2023/11/22 02:08:12;;;;;;;5.43;3.20;;;1.80;99.90;;;;;;4947371;28;20026;-66
2023/11/22 02:10:38;;;;;;;7.45;3.53;;;1.70;99.90;;;;;;4959882;28;20030;-66
2023/11/22 02:13:07;;;;;;;6.72;3.20;;;1.70;99.90;;;;;;4946895;28;20684;-66
2023/11/22 02:15:34;;;;;;;9.30;2.90;;;1.70;99.90;;;;;;4959251;28;20495;-66
2023/11/22 02:18:02;;;;;;;7.32;3.25;;;1.70;99.90;;;;;;4946411;28;20042;-66
2023/11/22 02:20:30;;;;;;;5.72;3.20;;;1.60;99.90;;;;;;4957317;28;20035;-67
2023/11/22 02:22:56;;;;;;;8.70;4.00;;;1.60;99.90;;;;;;4938189;28;20031;-66
2023/11/22 02:25:24;;;;;;;6.43;2.88;;;1.60;99.90;;;;;;4947173;28;20185;-66
2023/11/22 02:27:50;;;;;;;7.65;3.33;;;1.60;99.90;;;;;;4956745;28;20121;-66
2023/11/22 02:30:16;;;;;;;6.35;2.97;;;1.50;99.90;;;;;;4943045;28;20110;-66
2023/11/22 02:32:43;;;;;;;6.43;3.78;;;1.50;99.90;;;;;;4942609;28;20121;-66
2023/11/22 02:35:10;;;;;;;6.47;3.53;;;1.50;99.90;;;;;;4945941;28;20066;-66
2023/11/22 02:37:36;;;;;;;6.82;3.03;;;1.50;99.90;;;;;;4957375;28;20035;-66
2023/11/22 02:40:20;;;;;;;7.30;3.88;;;1.50;99.90;;;;;;4957983;28;20023;-66
2023/11/22 02:42:48;;;;;;;5.85;3.45;;;1.60;99.90;;;;;;4946722;28;20045;-67
2023/11/22 02:45:18;;;;;;;6.70;3.17;;;1.70;99.90;;;;;;4957521;28;20114;-66
2023/11/22 02:47:46;;;;;;;7.60;3.85;;;1.80;99.90;;;;;;4946974;28;20056;-66
2023/11/22 02:50:13;;;;;;;6.10;3.03;;;1.90;99.90;;;;;;4940462;28;20412;-66
2023/11/22 02:52:40;;;;;;;9.18;3.88;;;1.90;99.90;;;;;;4946571;28;20035;-66
2023/11/22 02:55:06;;;;;;;6.50;2.92;;;1.90;99.90;;;;;;4954386;28;20395;-66
2023/11/22 02:57:33;;;;;;;7.63;3.05;;;2.00;99.90;;;;;;4957085;28;20059;-66
2023/11/22 02:59:59;;;;;;;6.63;2.75;;;2.00;99.90;;;;;;4943249;28;20673;-66
2023/11/22 03:02:25;;;;;;;6.38;3.35;;;2.00;99.90;;;;;;4958282;28;20109;-66
2023/11/22 03:04:52;;;;;;;6.15;3.17;;;2.00;99.90;;;;;;4941953;28;20082;-66
2023/11/22 03:07:18;;;;;;;7.63;3.40;;;2.00;99.90;;;;;;4946331;28;20034;-66
2023/11/22 03:09:45;;;;;;;9.35;3.78;;;1.90;99.90;;;;;;4957997;28;20030;-66
2023/11/22 03:12:12;;;;;;;6.93;3.33;;;1.90;99.90;;;;;;4961487;28;20038;-66
2023/11/22 03:14:39;;;;;;;7.03;3.20;;;1.90;99.90;;;;;;4961917;28;20451;-66
2023/11/22 03:17:06;;;;;;;7.35;3.60;;;1.90;99.90;;;;;;4941199;28;20121;-66
2023/11/22 03:19:33;;;;;;;6.35;2.85;;;1.90;99.90;;;;;;4961056;28;20090;-66
2023/11/22 03:22:02;;;;;;;12.68;3.40;;;1.90;99.90;;;;;;4958508;28;20411;-66
2023/11/22 03:24:30;;;;;;;8.38;3.60;;;1.80;99.90;;;;;;4959654;28;20043;-66
2023/11/22 03:26:58;;;;;;;7.72;3.25;;;1.80;99.90;;;;;;4960218;28;20023;-66
2023/11/22 03:29:25;;;;;;;7.13;3.20;;;1.80;99.90;;;;;;4963359;28;20033;-66
2023/11/22 03:31:52;;;;;;;9.50;3.28;;;1.70;99.90;;;;;;4953581;29;20039;-66
2023/11/22 03:34:19;;;;;;;9.70;3.65;;;1.70;99.90;;;;;;4969416;28;20025;-66
2023/11/22 03:36:45;;;;;;;7.38;3.75;;;1.70;99.90;;;;;;4968601;28;20039;-66
2023/11/22 03:39:11;;;;;;;5.90;3.50;;;1.60;99.90;;;;;;4961529;28;20038;-67
2023/11/22 03:41:37;;;;;;;6.13;3.08;;;1.60;99.90;;;;;;4961387;28;20045;-66
2023/11/22 03:44:08;;;;;;;9.30;3.60;;;1.60;99.90;;;;;;4959399;28;20031;-66
2023/11/22 03:46:38;;;;;;;7.15;3.20;;;1.60;99.90;;;;;;4963260;28;20041;-66
2023/11/22 03:49:06;;;;;;;7.15;3.15;;;1.50;99.90;;;;;;4947820;28;20023;-66
2023/11/22 03:51:33;;;;;;;5.43;3.83;;;1.50;99.90;;;;;;4947079;28;20106;-66
2023/11/22 03:54:01;;;;;;;5.80;3.15;;;1.50;99.90;;;;;;4947576;28;20058;-66
2023/11/22 03:56:28;;;;;;;8.52;3.15;;;1.40;99.90;;;;;;4944216;28;20133;-65
2023/11/22 03:58:54;;;;;;;8.07;3.25;;;1.40;99.90;;;;;;4961288;28;20074;-66
2023/11/22 04:01:21;;;;;;;4.75;3.08;;;1.30;99.90;;;;;;4960203;28;20640;-67
2023/11/22 04:03:48;;;;;;;7.75;3.65;;;1.30;99.90;;;;;;4961241;28;20046;-66
2023/11/22 04:06:18;;;;;;;5.68;3.03;;;1.20;99.90;;;;;;4958053;28;20039;-66
2023/11/22 04:08:45;;;;;;;5.88;3.00;;;1.20;99.90;;;;;;4964319;28;20454;-66
2023/11/22 04:11:15;;;;;;;10.95;3.85;;;1.20;99.90;;;;;;4957271;28;20050;-66
2023/11/22 04:13:41;;;;;;;5.30;3.17;;;1.10;99.90;;;;;;4962670;28;20779;-66
2023/11/22 04:16:12;;;;;;;8.20;3.83;;;1.10;99.90;;;;;;4958971;28;20035;-66
2023/11/22 04:18:40;;;;;;;6.13;3.55;;;1.00;99.90;;;;;;4959180;28;20034;-66
2023/11/22 04:21:06;;;;;;;6.38;3.47;;;1.00;99.90;;;;;;4965071;28;20577;-66
2023/11/22 04:23:33;;;;;;;7.70;3.28;;;0.90;99.90;;;;;;4962441;28;20035;-67
2023/11/22 04:26:00;;;;;;;7.22;3.13;;;0.90;99.90;;;;;;4964192;28;20027;-66
2023/11/22 04:28:27;;;;;;;7.95;3.53;;;0.90;99.90;;;;;;4957645;28;20031;-66
2023/11/22 04:30:53;;;;;;;6.82;3.58;;;0.90;99.90;;;;;;4963466;28;20042;-66
2023/11/22 04:33:20;;;;;;;7.63;3.60;;;0.80;99.90;;;;;;4963321;28;20050;-66
2023/11/22 04:35:50;;;;;;;6.65;2.97;;;0.80;99.90;;;;;;4961242;28;20035;-66
2023/11/22 04:38:15;;;;;;;9.75;4.03;;;0.80;99.90;;;;;;4959286;28;20034;-66
2023/11/22 04:40:44;;;;;;;5.15;3.33;;;0.80;99.90;;;;;;4945975;28;20041;-66
2023/11/22 04:43:10;;;;;;;6.88;3.80;;;0.70;99.90;;;;;;4961357;28;20109;-66
2023/11/22 04:45:37;;;;;;;5.55;2.75;;;0.80;99.90;;;;;;4958148;28;20047;-66
2023/11/22 04:48:04;;;;;;;5.78;3.30;;;0.70;99.90;;;;;;4960650;28;20551;-66
2023/11/22 04:50:30;;;;;;;6.53;3.35;;;0.70;99.90;;;;;;4958201;28;20510;-66
2023/11/22 04:52:57;;;;;;;8.57;3.63;;;0.70;99.90;;;;;;4962129;28;20037;-66
2023/11/22 04:55:23;;;;;;;7.25;3.05;;;0.70;99.90;;;;;;4961544;28;20031;-66
2023/11/22 04:57:49;;;;;;;7.10;3.38;;;0.60;99.90;;;;;;4959376;28;20027;-66
2023/11/22 05:00:17;;;;;;;6.15;3.05;;;0.60;99.90;;;;;;4959099;28;20054;-66
2023/11/22 05:02:43;;;;;;;10.82;4.10;;;0.60;99.90;;;;;;4961927;28;20026;-66
2023/11/22 05:05:12;;;;;;;7.68;3.15;;;0.60;99.90;;;;;;4967398;28;20118;-66
2023/11/22 05:07:38;;;;;;;9.55;4.38;;;0.50;99.90;;;;;;4962601;28;20035;-66
2023/11/22 05:10:05;;;;;;;10.85;4.07;;;0.50;99.90;;;;;;4959571;28;20042;-66
2023/11/22 05:12:31;;;;;;;6.82;3.47;;;0.50;99.90;;;;;;4960274;28;20034;-66
2023/11/22 05:14:57;;;;;;;7.07;3.72;;;0.50;99.90;;;;;;4960684;28;20069;-66
2023/11/22 05:17:23;;;;;;;8.05;3.42;;;0.50;99.90;;;;;;4959390;28;20047;-66
2023/11/22 05:19:50;;;;;;;8.32;3.90;;;0.40;99.90;;;;;;4964780;28;20042;-66
2023/11/22 05:22:17;;;;;;;9.98;4.00;;;0.50;99.90;;;;;;4957879;28;20035;-66
2023/11/22 05:24:43;;;;;;;8.25;3.80;;;0.50;99.90;;;;;;4962714;28;20057;-66
2023/11/22 05:27:09;;;;;;;9.40;3.92;;;0.40;99.90;;;;;;4958669;28;20053;-66
2023/11/22 05:29:36;;;;;;;11.00;4.32;;;0.40;99.90;;;;;;4962251;28;20402;-66
2023/11/22 05:32:02;;;;;;;8.63;4.05;;;0.40;99.90;;;;;;4959743;28;20105;-66
2023/11/22 05:34:29;;;;;;;6.15;3.20;;;0.40;99.90;;;;;;4959445;28;20567;-66
2023/11/22 05:36:55;;;;;;;9.38;3.80;;;0.40;99.90;;;;;;4961372;28;20065;-66
2023/11/22 05:39:24;;;;;;;7.88;4.05;;;0.40;99.90;;;;;;4957800;28;20031;-66
2023/11/22 05:41:54;;;;;;;7.30;3.90;;;0.40;99.90;;;;;;4963767;28;20307;-66
2023/11/22 05:44:20;;;;;;;9.23;3.83;;;0.30;99.90;;;;;;4956761;28;20067;-66
2023/11/22 05:46:46;;;;;;;10.30;3.88;;;0.30;99.90;;;;;;4962584;28;20045;-66
2023/11/22 05:49:12;;;;;;;7.68;3.85;;;0.30;99.90;;;;;;4956764;28;20035;-66
2023/11/22 05:51:38;;;;;;;7.80;3.92;;;0.30;99.90;;;;;;4961205;28;20486;-66
2023/11/22 05:54:04;;;;;;;7.72;4.00;;;0.30;99.90;;;;;;4959194;28;20046;-66
2023/11/22 05:56:30;;;;;;;7.45;3.30;;;0.30;99.90;;;;;;4962306;28;20145;-66
2023/11/22 05:58:57;;;;;;;8.73;3.75;;;0.30;99.90;;;;;;4961271;28;20161;-66
2023/11/22 06:01:23;;;;;;;9.13;4.13;;;0.30;99.90;;;;;;4959577;28;20038;-66
2023/11/22 06:03:50;;;;;;;8.18;4.18;;;0.20;99.90;;;;;;4959032;28;20063;-66
2023/11/22 06:06:17;;;;;;;8.40;4.43;;;0.20;99.90;;;;;;4959568;28;20054;-66
2023/11/22 06:08:43;;;;;;;7.68;4.13;;;0.20;99.90;;;;;;4960120;28;20045;-66
2023/11/22 06:11:09;;;;;;;8.52;3.97;;;0.20;99.90;;;;;;4959385;28;20039;-66
2023/11/22 06:13:35;;;;;;;5.55;3.47;;;0.10;99.90;;;;;;4959459;28;20128;-66
2023/11/22 06:16:01;;;;;;;7.65;4.00;;;0.20;99.90;;;;;;4958060;28;20043;-66
2023/11/22 06:18:29;;;;;;;8.95;4.10;;;0.20;99.90;;;;;;4962512;28;20034;-66
2023/11/22 06:20:56;;;;;;;9.80;4.60;;;0.10;99.90;;;;;;4958310;28;20027;-66
2023/11/22 06:23:23;;;;;;;7.35;3.67;;;0.10;99.90;;;;;;4961491;28;20026;-66
2023/11/22 06:25:49;;;;;;;9.15;4.10;;;0.10;99.90;;;;;;4958333;28;20423;-66
2023/11/22 06:28:15;;;;;;;11.07;3.67;;;0.10;99.90;;;;;;4963115;28;20461;-66
2023/11/22 06:30:42;;;;;;;8.18;3.60;;;0.10;99.90;;;;;;4960977;28;20046;-66
2023/11/22 06:33:08;;;;;;;7.65;3.90;;;0.10;99.90;;;;;;4958257;28;20039;-66
2023/11/22 06:35:34;;;;;;;9.15;4.75;;;0.10;99.90;;;;;;4957483;28;20467;-66
2023/11/22 06:38:00;;;;;;;14.90;4.60;;;0.10;99.90;;;;;;4956164;28;20023;-66
2023/11/22 06:40:25;;;;;;;6.40;3.88;;;0.10;99.90;;;;;;4961974;28;20396;-66
2023/11/22 06:42:51;;;;;;;7.75;4.47;;;0.00;99.90;;;;;;4956730;28;20635;-66
2023/11/22 06:45:19;;;;;;;9.27;4.10;;;0.00;99.90;;;;;;4960206;28;20198;-66
2023/11/22 06:47:45;;;;;;;8.82;4.00;;;0.00;99.90;;;;;;4958611;28;20046;-66
2023/11/22 06:50:12;;;;;;;7.38;4.05;;;0.00;99.90;;;;;;4961217;28;20040;-66
2023/11/22 06:52:41;;;;;;;8.90;3.70;;;0.10;99.90;;;;;;4957941;28;20046;-66
2023/11/22 06:55:09;;;;;;;10.13;4.50;;;0.00;99.90;;;;;;4959309;28;20054;-65
2023/11/22 06:57:35;;;;;;;9.88;4.10;;;0.00;99.90;;;;;;4960049;28;20514;-66
2023/11/22 07:00:06;;;;;;;8.50;4.25;;;0.00;99.90;;;;;;4961055;28;20022;-66
2023/11/22 07:02:32;;;;;;;11.05;4.72;;;0.10;99.90;;;;;;4962662;28;20142;-66
2023/11/22 07:05:01;;;;;;;8.20;4.28;;;0.10;99.90;;;;;;4962679;28;20027;-66
2023/11/22 07:07:27;;;;;;;7.18;4.18;;;0.10;99.90;;;;;;4961172;28;20030;-66
2023/11/22 07:09:54;;;;;;;9.07;4.30;;;0.10;99.90;;;;;;4963361;28;20395;-66
2023/11/22 07:12:20;;;;;;;8.60;3.90;;;0.10;99.90;;;;;;4962865;28;20121;-66
2023/11/22 07:14:46;;;;;;;9.40;4.18;;;0.10;99.90;;;;;;4961857;28;20066;-66
2023/11/22 07:17:13;;;;;;;11.18;4.10;;;0.10;99.90;;;;;;4965839;28;20031;-66
2023/11/22 07:19:42;;;;;;;8.77;4.75;;;0.10;99.90;;;;;;4959725;28;20690;-67
2023/11/22 07:22:15;;;;;;;8.77;4.75;;;0.20;99.90;;;;;;4966872;28;20027;-66
2023/11/22 07:24:44;;;;;;;7.28;3.90;;;0.10;99.90;;;;;;4964869;28;20149;-66
2023/11/22 07:27:14;;;;;;;8.90;4.32;;;0.20;99.90;;;;;;4963589;28;20703;-67
2023/11/22 07:29:41;;;;;;;10.90;4.32;;;0.20;99.90;;;;;;4960506;28;20041;-66
2023/11/22 07:32:08;;;;;;;11.20;4.15;;;0.30;99.90;;;;;;4964493;28;20042;-66
2023/11/22 07:34:36;;;;;;;7.97;3.78;;;0.30;99.90;;;;;;4969117;28;20035;-66
2023/11/22 07:37:03;;;;;;;6.95;3.88;;;0.40;99.90;;;;;;4967803;28;20256;-66
2023/11/22 07:39:29;;;;;;;13.25;4.55;;;0.40;99.90;;;;;;4966664;28;20026;-66
2023/11/22 07:41:55;;;;;;;10.25;4.05;;;0.40;99.90;;;;;;4960475;28;20032;-66
2023/11/22 07:44:25;;;;;;;8.73;4.35;;;0.50;99.90;;;;;;4948464;28;20129;-66
2023/11/22 07:46:59;;;;;;;7.82;4.20;;;0.50;99.90;;;;;;4958636;28;20833;-66
2023/11/22 07:49:25;;;;;;;8.85;4.32;;;0.60;99.90;;;;;;4965077;28;20031;-66
2023/11/22 07:51:51;;;;;;;8.70;3.97;;;0.60;99.90;;;;;;4960256;28;20043;-66
2023/11/22 07:54:22;;;;;;;9.95;4.55;;;0.70;99.90;;;;;;4956548;28;20082;-66
2023/11/22 07:56:52;;;;;;;11.25;5.03;;;0.80;99.90;;;;;;4960352;28;20679;-66
2023/11/22 07:59:18;;;;;;;8.23;4.97;;;0.90;99.90;;;;;;4961862;28;20048;-66
2023/11/22 08:01:47;;;;;;;10.18;4.55;;;1.00;99.90;;;;;;4962878;28;20150;-66
2023/11/22 08:04:15;;;;;;;10.27;5.03;;;1.00;99.90;;;;;;4959255;28;20037;-66
2023/11/22 08:06:41;;;;;;;9.52;3.83;;;1.10;99.90;;;;;;4964603;28;20398;-66
2023/11/22 08:09:08;;;;;;;10.82;4.43;;;1.20;99.90;;;;;;4957621;28;20046;-66
2023/11/22 08:11:35;;;;;;;8.57;4.28;;;1.20;99.90;;;;;;4960783;28;20555;-67
2023/11/22 08:14:05;;;;;;;8.65;5.18;;;1.30;99.90;;;;;;4960562;28;20375;-66
2023/11/22 08:16:32;;;;;;;9.10;4.90;;;1.40;99.90;;;;;;4961586;28;20142;-66
2023/11/22 08:18:58;;;;;;;8.93;4.78;;;1.50;99.90;;;;;;4963136;28;20109;-66
2023/11/22 08:21:24;;;;;;;11.30;5.07;;;1.60;99.90;;;;;;4959751;28;20782;-67
2023/11/22 08:23:50;;;;;;;9.45;4.78;;;1.70;99.90;;;;;;4962394;28;20039;-66
2023/11/22 08:26:16;;;;;;;12.00;4.55;;;1.70;99.90;;;;;;4959272;28;20038;-67
2023/11/22 08:28:42;;;;;;;11.70;4.78;;;1.80;99.90;;;;;;4967418;28;20588;-67
2023/11/22 08:31:09;;;;;;;12.50;5.40;;;1.80;99.90;;;;;;4960028;28;20402;-67
2023/11/22 08:33:35;;;;;;;9.32;4.30;;;1.90;99.90;;;;;;4965852;28;20039;-67
2023/11/22 08:36:04;;;;;;;10.60;5.25;;;2.00;99.90;;;;;;4963681;28;20093;-67
2023/11/22 08:38:33;;;;;;;9.63;4.80;;;2.20;99.90;;;;;;4946511;28;20041;-67
2023/11/22 08:41:02;;;;;;;10.85;5.03;;;2.30;99.90;;;;;;4962126;28;20069;-66
2023/11/22 08:43:28;;;;;;;10.20;4.25;;;2.30;99.90;;;;;;4960007;28;20038;-66
2023/11/22 08:45:54;;;;;;;10.18;5.03;;;2.30;99.90;;;;;;4961211;28;20415;-66
2023/11/22 08:48:20;;;;;;;10.07;4.47;;;2.30;99.90;;;;;;4942878;28;20023;-66
2023/11/22 08:50:48;;;;;;;9.63;4.40;;;2.40;99.90;;;;;;4962371;28;20482;-66
2023/11/22 08:53:15;;;;;;;9.20;4.75;;;2.50;99.90;;;;;;4960190;28;20042;-66
2023/11/22 08:55:43;;;;;;;9.45;4.53;;;2.50;99.90;;;;;;4968476;28;20034;-66
2023/11/22 08:58:13;;;;;;;9.52;4.57;;;2.60;99.90;;;;;;4960961;28;20129;-67
2023/11/22 09:00:41;;;;;;;8.32;4.50;;;2.70;99.90;;;;;;4960474;28;20097;-66
2023/11/22 09:03:08;;;;;;;9.73;4.75;;;3.10;99.90;;;;;;4959592;28;20035;-67
2023/11/22 09:05:34;;;;;;;12.25;4.90;;;4.00;99.90;;;;;;4963063;28;20035;-67
2023/11/22 09:08:00;;;;;;;9.93;5.13;;;5.60;97.90;;;;;;4960353;28;20035;-67
2023/11/22 09:10:26;;;;;;;11.63;4.93;;;6.90;95.20;;;;;;4962491;28;20054;-67
2023/11/22 09:12:53;;;;;;;11.45;4.90;;;8.00;91.60;;;;;;4958263;28;20034;-67
2023/11/22 09:15:26;;;;;;;8.70;4.47;;;9.10;85.40;;;;;;4947802;28;20097;-66
2023/11/22 09:17:53;;;;;;;8.48;4.32;;;9.80;81.50;;;;;;4958351;28;20035;-66
2023/11/22 09:20:20;;;;;;;7.13;4.60;;;10.20;78.50;;;;;;4960137;28;20039;-66
2023/11/22 09:22:48;;;;;;;6.45;3.90;;;11.20;76.40;;;;;;4960203;28;20027;-66
2023/11/22 09:25:19;;;;;;;8.30;4.38;;;12.30;70.60;;;;;;4957242;28;20031;-66
2023/11/22 09:27:47;;;;;;;8.95;4.40;;;13.30;65.00;;;;;;4963125;28;20094;-66
2023/11/22 09:30:32;;;;;;;9.82;4.75;;;14.10;61.80;;;;;;4961719;28;20126;-66
2023/11/22 09:33:16;;;;;;;9.50;4.18;;;14.70;56.00;;;;;;4965373;28;20042;-66
2023/11/22 09:35:44;;;;;;;9.00;5.07;;;15.30;54.90;;;;;;4961090;28;20164;-67
2023/11/22 09:38:14;;;;;;;8.93;4.70;;;15.60;53.50;;;;;;4957042;28;20696;-66
2023/11/22 09:40:47;;;;;;;11.52;4.85;;;16.00;52.90;;;;;;4957297;28;20488;-67
2023/11/22 09:43:17;;;;;;;11.90;4.50;;;16.40;50.50;;;;;;4956692;28;20082;-65
2023/11/22 09:45:49;;;;;;;7.72;4.50;;;16.70;48.50;;;;;;4956687;28;20030;-66
2023/11/22 09:48:17;;;;;;;9.13;4.47;;;16.90;49.50;;;;;;4956283;28;20043;-66
2023/11/22 09:50:57;;;;;;;8.30;4.55;;;17.00;48.10;;;;;;4959668;28;20045;-66
2023/11/22 09:53:31;;;;;;;7.65;4.13;;;16.50;47.60;;;;;;4958068;28;20058;-66
2023/11/22 09:55:58;;;;;;;6.13;3.95;;;16.00;49.40;;;;;;4957843;28;20045;-67
2023/11/22 09:58:25;;;;;;;7.75;4.43;;;15.70;51.20;;;;;;4960856;28;20030;-66
2023/11/22 10:00:52;;;;;;;7.78;3.95;;;15.10;50.90;;;;;;4959780;28;20050;-66
2023/11/22 10:03:20;;;;;;;7.47;4.00;;;14.60;50.50;;;;;;4960240;28;20026;-66
2023/11/22 10:05:46;;;;;;;6.13;3.60;;;14.10;53.00;;;;;;4957991;28;20508;-66
2023/11/22 10:08:12;;;;;;;6.25;3.65;;;13.60;52.70;;;;;;4942448;28;20122;-65
2023/11/22 10:10:40;;;;;;;6.47;3.28;;;13.40;52.80;;;;;;4956335;28;20027;-66
2023/11/22 10:13:06;;;;;;;6.22;3.72;;;13.40;52.00;;;;;;4945217;28;20829;-67
2023/11/22 10:15:32;;;;;;;4.28;3.00;;;13.40;52.90;;;;;;4955502;28;20035;-66
2023/11/22 10:18:00;;;;;;;7.38;4.15;;;13.50;51.90;;;;;;4961728;28;20054;-67
2023/11/22 10:20:41;;;;;;;6.55;3.53;;;13.40;51.20;;;;;;4959048;28;20062;-66
2023/11/22 10:23:14;;;;;;;7.97;3.85;;;13.30;51.80;;;;;;4958113;28;20037;-67
2023/11/22 10:25:52;;;;;;;7.95;3.88;;;13.00;54.50;;;;;;4957105;28;20539;-67
2023/11/22 10:28:19;;;;;;;7.38;3.95;;;12.70;52.60;;;;;;4959300;28;20066;-67
2023/11/22 10:30:49;;;;;;;6.15;4.03;;;12.60;53.20;;;;;;4958768;28;20137;-66
2023/11/22 10:33:16;;;;;;;8.30;4.38;;;12.60;51.90;;;;;;4966063;28;20038;-66
2023/11/22 10:35:43;;;;;;;7.20;3.70;;;13.20;50.70;;;;;;4965196;28;20049;-66
2023/11/22 10:38:10;;;;;;;7.25;4.03;;;14.10;51.90;;;;;;4960247;28;20032;-66
2023/11/22 10:40:37;;;;;;;8.30;4.10;;;15.20;48.20;;;;;;4965357;28;20042;-66
2023/11/22 10:43:04;;;;;;;7.40;3.65;;;16.00;46.40;;;;;;4962119;28;20539;-66
2023/11/22 10:45:33;;;;;;;9.50;4.07;;;16.40;44.70;;;;;;4963898;28;20511;-66
2023/11/22 10:48:01;;;;;;;8.15;3.88;;;16.90;45.30;;;;;;4960500;28;20522;-66
2023/11/22 10:50:28;;;;;;;8.93;3.97;;;17.10;44.30;;;;;;4963431;28;20402;-66
2023/11/22 10:52:57;;;;;;;5.72;3.47;;;17.00;44.30;;;;;;4966565;28;20079;-65
2023/11/22 10:55:27;;;;;;;6.88;3.83;;;16.60;45.40;;;;;;4963972;28;20160;-64
2023/11/22 10:58:01;;;;;;;6.93;3.70;;;16.40;45.20;;;;;;4963401;28;20057;-65
2023/11/22 11:00:29;;;;;;;10.48;4.75;;;16.60;45.10;;;;;;4960802;28;20027;-65
2023/11/22 11:02:59;;;;;;;7.07;3.95;;;16.60;46.10;;;;;;4965028;28;20039;-65
2023/11/22 11:05:31;;;;;;;7.97;4.00;;;15.00;46.90;;;;;;4961854;28;20027;-65
2023/11/22 11:08:12;;;;;;;9.73;4.10;;;13.20;50.00;;;;;;4963211;28;20022;-65
2023/11/22 11:10:42;;;;;;;7.05;3.95;;;11.60;53.30;;;;;;4963797;28;20027;-65
2023/11/22 11:13:10;;;;;;;8.93;4.15;;;10.30;57.20;;;;;;4962043;28;20031;-65
2023/11/22 11:15:43;;;;;;;8.57;4.13;;;9.40;59.20;;;;;;4961835;28;20874;-65
2023/11/22 11:18:13;;;;;;;7.93;3.83;;;8.80;62.00;;;;;;4960308;28;20027;-66
2023/11/22 11:21:00;;;;;;;7.63;4.28;;;8.20;63.80;;;;;;4964635;28;20031;-66
2023/11/22 11:23:27;;;;;;;7.95;3.92;;;7.90;65.60;;;;;;4958526;28;20089;-66
2023/11/22 11:25:59;;;;;;;9.02;3.60;;;7.60;64.50;;;;;;4964188;28;20062;-66
2023/11/22 11:28:27;;;;;;;8.52;3.97;;;7.30;66.40;;;;;;4960220;28;20034;-66
2023/11/22 11:30:57;;;;;;;11.32;4.43;;;7.10;66.30;;;;;;4963376;28;20441;-65
2023/11/22 11:33:53;;;;;;;8.65;4.13;;;6.90;68.00;;;;;;4964643;28;20031;-67
2023/11/22 11:36:27;;;;;;;5.75;3.45;;;6.80;66.90;;;;;;4960386;28;20039;-68
2023/11/22 11:38:55;;;;;;;6.55;3.63;;;6.60;68.40;;;;;;4968328;28;20121;-70
2023/11/22 11:41:28;;;;;;;7.20;3.88;;;6.50;68.50;;;;;;4962864;28;20027;-69
2023/11/22 11:43:56;;;;;;;6.50;3.63;;;6.40;70.30;;;;;;4966433;28;20098;-68
2023/11/22 11:46:26;;;;;;;7.38;3.88;;;6.30;69.00;;;;;;4960812;28;20038;-69
2023/11/22 11:48:53;;;;;;;6.00;3.28;;;6.20;69.30;;;;;;4963285;28;20027;-69
2023/11/22 11:51:22;;;;;;;7.05;3.92;;;6.20;67.70;;;;;;4960980;28;20452;-69
2023/11/22 11:53:48;;;;;;;8.88;3.92;;;6.10;68.80;;;;;;4961211;28;20050;-69
2023/11/22 11:56:15;;;;;;;10.25;4.03;;;6.00;68.00;;;;;;4950118;28;20039;-69
2023/11/22 11:58:43;;;;;;;7.00;4.60;;;6.10;71.40;;;;;;4957835;28;20085;-69
2023/11/22 12:01:12;;;;;;;7.03;3.50;;;6.10;71.60;;;;;;4962136;28;20035;-70
2023/11/22 12:03:38;;;;;;;6.32;3.50;;;6.10;69.50;;;;;;4959756;28;20034;-69
2023/11/22 12:06:08;;;;;;;6.20;3.10;;;6.10;70.40;;;;;;4962452;28;20779;-69
2023/11/22 12:08:37;;;;;;;5.97;3.50;;;6.10;70.70;;;;;;4958166;28;20418;-69
2023/11/22 12:11:10;;;;;;;8.57;3.83;;;6.00;69.90;;;;;;4960650;28;20035;-69
2023/11/22 12:13:43;;;;;;;5.95;3.38;;;5.90;69.20;;;;;;4959103;28;20053;-69
2023/11/22 12:16:12;;;;;;;8.30;3.28;;;5.90;70.60;;;;;;4961048;28;20093;-69
2023/11/22 12:18:51;;;;;;;6.78;3.28;;;5.80;70.90;;;;;;4962608;28;20113;-69
2023/11/22 12:21:18;;;;;;;6.93;3.50;;;5.80;71.50;;;;;;4959534;28;20049;-70
2023/11/22 12:23:46;;;;;;;6.18;3.33;;;5.80;70.90;;;;;;4961842;28;20038;-70
2023/11/22 12:26:17;;;;;;;5.25;2.80;;;5.70;69.90;;;;;;4957978;28;20049;-70
2023/11/22 12:28:48;;;;;;;7.40;3.00;;;5.60;70.40;;;;;;4960440;28;20031;-69
2023/11/22 12:31:15;;;;;;;6.97;3.80;;;5.50;70.00;;;;;;4957090;28;20137;-69
2023/11/22 12:33:42;;;;;;;6.50;3.47;;;5.50;71.90;;;;;;4964998;28;20509;-69
2023/11/22 12:36:10;;;;;;;10.02;4.22;;;5.40;72.50;;;;;;4959338;28;20041;-69
2023/11/22 12:38:40;;;;;;;6.13;3.20;;;5.50;72.00;;;;;;4960335;28;20677;-70
2023/11/22 12:41:06;;;;;;;9.52;3.55;;;5.50;72.50;;;;;;4958811;28;20743;-70
2023/11/22 12:43:33;;;;;;;6.80;3.33;;;5.50;72.00;;;;;;4957948;28;20086;-70
2023/11/22 12:46:07;;;;;;;5.80;3.45;;;5.50;72.30;;;;;;4960911;28;20547;-70
2023/11/22 12:48:33;;;;;;;5.32;3.10;;;5.60;74.30;;;;;;4956773;28;20542;-68
2023/11/22 12:51:00;;;;;;;5.97;3.00;;;5.60;73.90;;;;;;4963193;28;20043;-67
2023/11/22 12:53:30;;;;;;;6.20;3.28;;;5.60;73.70;;;;;;4958845;28;20133;-67
2023/11/22 12:55:56;;;;;;;6.57;3.22;;;5.70;72.60;;;;;;4942365;28;20383;-67
2023/11/22 12:58:24;;;;;;;4.15;3.15;;;5.60;73.50;;;;;;4954428;28;20457;-68